Round Rock, TX (78665)

8:45 PM CST on February 13, 2016 (GMT -0600)
Voigt Elementary School | | Change Station
CLOSE
Current Station
Personal Weather Station
Location: Round Rock, TX
Elevation: 768 ft
Nearby Weather Stations

Elev 768 ft 30.50 °N, 97.68 °W | Updated 2 minutes ago

Partly Cloudy
Partly Cloudy
62.4 °F
Feels Like 62.4 °F
N
1.7
Wind Variable Wind from ESE

Today
High -- | Low -- °F
--% Chance of Precip.
Yesterday
High -- | Low -- °F
Precip. -- in
Pressure 30.17 in
Visibility 10.0 miles
Clouds Mostly Cloudy 3400 ft
Overcast 4200 ft
Dew Point 52 °F
Humidity 70%
Rainfall 0.00 in
Snow Depth Not available.
7:13 AM 6:16 PM
Waxing Crescent, 36% visible
METAR KEDC 140235Z AUTO 16011G16KT 10SM BKN034 OVC042 17/11 A3017 RMK AO2
Pressure 30.17 in
Visibility 10.0 miles
Clouds Mostly Cloudy 3400 ft
Overcast 4200 ft
Dew Point 52 °F
Humidity 70%
Rainfall 0.00 in
Snow Depth Not available.
7:13 AM 6:16 PM
Waxing Crescent, 36% visible
METAR KEDC 140235Z AUTO 16011G16KT 10SM BKN034 OVC042 17/11 A3017 RMK AO2

10-Day Weather Forecast

Almanac

Astronomy

Feb. 13, 2016 Rise Set
Actual Time
Civil Twilight
Nautical Twilight
Astronomical Twilight
Moon
Length of Visible Light
Length of Day
Tomorrow will be .
, % of the Moon is Illuminated

Today's Extremes

State Highs State Lows

Community

WunderPhotos

Upload Photos

1,892,731 photos uploaded!

WunderBlog® & News

Nearby

Air Quality

  Air Quality AQ Index Pollutant
Not available.

Snow Depth

Station Depth Elevation

Earthquake Activity

City Distance Mag. Time & Date
Minimum magnitude displayed is 2.5.

Coastal Water Temperatures

Place Temperature

Stations

Nearby Weather Stations

Station Location Temp. Windchill Dew Point Humidity Wind Precip. Elev Updated Type
                   

Watches & Warnings

There are currently no watches in effect.